createdAt,value
2018-09-21T00:03:15.781Z,47.67
2018-09-21T00:13:18.894Z,48.35
2018-09-21T00:23:22.100Z,47.82
2018-09-21T00:33:25.823Z,48.25
2018-09-21T00:43:29.030Z,47.45
2018-09-21T00:53:32.192Z,48.08
2018-09-21T01:03:35.513Z,47.75
2018-09-21T01:19:52.812Z,47.56
2018-09-21T01:31:31.102Z,48.42
2018-09-21T01:41:34.530Z,48.21
2018-09-21T01:51:37.653Z,47.56
2018-09-21T02:01:40.904Z,48.11
2018-09-21T02:11:44.268Z,48.40
2018-09-21T02:21:47.878Z,48.69
2018-09-21T02:31:51.110Z,48.40
2018-09-21T02:41:54.463Z,48.67
2018-09-21T02:51:57.861Z,48.44
2018-09-21T03:02:01.093Z,47.69
2018-09-21T03:12:04.189Z,47.75
2018-09-21T03:22:07.638Z,47.78
2018-09-21T03:32:10.990Z,47.98
2018-09-21T03:42:14.198Z,48.54
2018-09-21T03:52:17.388Z,47.71
2018-09-21T04:02:20.578Z,48.52
2018-09-21T04:12:23.833Z,47.72
2018-09-21T04:22:27.002Z,48.50
2018-09-21T04:32:29.995Z,48.41
2018-09-21T04:42:33.200Z,48.49
2018-09-21T04:52:36.416Z,48.29
2018-09-21T05:02:39.433Z,48.30
2018-09-21T05:12:42.762Z,48.58
2018-09-21T05:22:46.026Z,47.82
2018-09-21T05:32:49.057Z,47.57
2018-09-21T05:42:52.704Z,48.38
2018-09-21T05:52:55.826Z,48.38
2018-09-21T06:02:59.090Z,47.61
2018-09-21T06:13:02.117Z,47.53
2018-09-21T06:23:05.250Z,47.58
2018-09-21T06:33:08.361Z,47.49
2018-09-21T06:43:11.663Z,47.54
2018-09-21T06:53:14.844Z,48.51
2018-09-21T07:03:17.977Z,47.13
2018-09-21T07:13:21.170Z,47.05
2018-09-21T07:23:24.189Z,47.17
2018-09-21T07:33:27.329Z,47.53
2018-09-21T07:43:30.953Z,46.94
2018-09-21T07:53:34.057Z,47.85
2018-09-21T08:03:37.219Z,47.25
2018-09-21T08:13:40.375Z,47.54
2018-09-21T08:23:43.520Z,47.07
2018-09-21T08:33:47.917Z,46.19
2018-09-21T08:43:51.188Z,45.75
2018-09-21T08:53:54.360Z,46.11
2018-09-21T09:03:57.469Z,44.51
2018-09-21T09:14:00.687Z,44.49
2018-09-21T09:24:03.763Z,44.03
2018-09-21T09:34:06.910Z,44.85
2018-09-21T09:44:10.591Z,44.93
2018-09-21T09:57:49.435Z,43.45
2018-09-21T10:07:53.906Z,41.55
2018-09-21T10:17:56.968Z,42.43
2018-09-21T10:28:00.297Z,42.51
2018-09-21T10:38:03.239Z,42.67
2018-09-21T10:48:06.328Z,43.59
2018-09-21T10:58:09.461Z,43.36
2018-09-21T11:08:12.602Z,44.28
2018-09-21T11:18:15.809Z,44.29
2018-09-21T11:28:19.076Z,43.89
2018-09-21T11:38:21.542Z,44.53
2018-09-21T11:48:23.885Z,44.77
2018-09-21T11:58:26.386Z,44.66
2018-09-21T12:08:28.796Z,44.65
2018-09-21T12:18:31.237Z,41.08
2018-09-21T12:28:33.599Z,41.21
2018-09-21T12:38:36.306Z,41.91
2018-09-21T12:48:38.696Z,43.36
2018-09-21T12:58:41.229Z,43.47
2018-09-21T13:08:43.716Z,43.75
2018-09-21T13:18:46.281Z,44.71
2018-09-21T13:28:48.732Z,44.20
2018-09-21T13:38:51.245Z,45.62
2018-09-21T13:48:53.779Z,44.57
2018-09-21T13:58:56.776Z,45.27
2018-09-21T14:08:59.321Z,44.99
2018-09-21T14:19:01.838Z,45.88
2018-09-21T14:29:04.391Z,46.43
2018-09-21T14:39:07.573Z,46.25
2018-09-21T14:49:09.972Z,45.07
2018-09-21T14:59:12.485Z,44.89
2018-09-21T15:09:15.049Z,46.08
2018-09-21T15:19:17.980Z,46.64
2018-09-21T15:29:20.469Z,46.48
2018-09-21T15:39:23.062Z,44.61
2018-09-21T15:49:25.617Z,44.04
2018-09-21T15:59:28.322Z,46.59
2018-09-21T16:09:30.839Z,47.16
2018-09-21T16:19:33.287Z,46.61
2018-09-21T16:29:35.900Z,47.07
2018-09-21T16:39:38.348Z,47.48
2018-09-21T16:49:40.816Z,46.76
2018-09-21T16:59:43.201Z,48.63
2018-09-21T17:09:47.371Z,48.31
2018-09-21T17:19:49.880Z,48.88
2018-09-21T17:29:52.397Z,47.40
2018-09-21T17:39:54.864Z,47.41
2018-09-21T17:49:57.222Z,46.53
2018-09-21T17:59:59.728Z,46.18
2018-09-21T18:10:02.058Z,46.12
2018-09-21T18:20:04.421Z,46.56
2018-09-21T18:30:06.907Z,46.58
2018-09-21T18:40:09.253Z,46.11
2018-09-21T18:50:11.575Z,46.31
2018-09-21T19:00:14.072Z,46.28
2018-09-21T19:10:16.421Z,45.38
2018-09-21T19:20:18.892Z,46.02
2018-09-21T19:30:21.237Z,45.00
2018-09-21T19:40:23.579Z,44.86
2018-09-21T19:50:26.073Z,46.91
2018-09-21T20:00:28.401Z,47.95
2018-09-21T20:10:30.734Z,47.86
2018-09-21T20:20:33.044Z,47.28
2018-09-21T20:30:40.772Z,47.15
2018-09-21T20:40:43.208Z,46.60
2018-09-21T20:50:45.817Z,46.23
2018-09-21T21:00:48.276Z,46.29
2018-09-21T21:10:50.572Z,47.50
2018-09-21T21:20:52.920Z,47.33
2018-09-21T21:30:55.250Z,46.48
2018-09-21T21:40:58.019Z,46.81
2018-09-21T21:51:00.509Z,47.62
2018-09-21T22:01:08.492Z,47.70
2018-09-21T22:11:16.244Z,47.66
2018-09-21T22:21:19.487Z,47.08
2018-09-21T22:31:22.089Z,46.98
2018-09-21T22:41:29.316Z,47.39
2018-09-21T22:51:33.633Z,46.68
2018-09-21T23:01:37.580Z,46.86
2018-09-21T23:11:40.527Z,46.79
2018-09-21T23:21:44.434Z,46.69
2018-09-21T23:31:51.662Z,47.40
2018-09-21T23:41:54.142Z,47.61
2018-09-21T23:51:56.967Z,46.66
